sensor_id;sensor_type;location;lat;lon;timestamp;P1;durP1;ratioP1;P2;durP2;ratioP2
3101;SDS011;1561;42.666;23.392;2022-12-18T00:01:34;8.60;;;6.73;;
3101;SDS011;1561;42.666;23.392;2022-12-18T00:05:03;10.47;;;6.80;;
3101;SDS011;1561;42.666;23.392;2022-12-18T00:08:29;12.40;;;6.70;;
3101;SDS011;1561;42.666;23.392;2022-12-18T00:11:55;9.50;;;7.30;;
3101;SDS011;1561;42.666;23.392;2022-12-18T00:15:25;9.80;;;6.53;;
3101;SDS011;1561;42.666;23.392;2022-12-18T00:18:53;10.20;;;7.70;;
3101;SDS011;1561;42.666;23.392;2022-12-18T00:22:23;11.50;;;6.70;;
3101;SDS011;1561;42.666;23.392;2022-12-18T00:25:49;11.00;;;7.77;;
3101;SDS011;1561;42.666;23.392;2022-12-18T00:29:18;7.90;;;5.87;;
3101;SDS011;1561;42.666;23.392;2022-12-18T00:32:49;10.30;;;7.60;;
3101;SDS011;1561;42.666;23.392;2022-12-18T00:36:15;11.63;;;8.60;;
3101;SDS011;1561;42.666;23.392;2022-12-18T00:39:43;10.83;;;7.57;;
3101;SDS011;1561;42.666;23.392;2022-12-18T00:43:08;8.90;;;7.40;;
3101;SDS011;1561;42.666;23.392;2022-12-18T00:46:38;9.93;;;7.00;;
3101;SDS011;1561;42.666;23.392;2022-12-18T00:50:05;10.73;;;7.60;;
3101;SDS011;1561;42.666;23.392;2022-12-18T00:53:33;10.00;;;8.02;;
3101;SDS011;1561;42.666;23.392;2022-12-18T00:56:00;10.80;;;7.63;;
3101;SDS011;1561;42.666;23.392;2022-12-18T00:58:28;8.80;;;7.27;;
3101;SDS011;1561;42.666;23.392;2022-12-18T01:00:56;9.30;;;7.00;;
3101;SDS011;1561;42.666;23.392;2022-12-18T01:03:25;7.00;;;6.30;;
3101;SDS011;1561;42.666;23.392;2022-12-18T01:05:54;8.40;;;5.83;;
3101;SDS011;1561;42.666;23.392;2022-12-18T01:08:22;9.67;;;6.60;;
3101;SDS011;1561;42.666;23.392;2022-12-18T01:10:50;9.80;;;6.27;;
3101;SDS011;1561;42.666;23.392;2022-12-18T01:13:18;9.13;;;7.00;;
3101;SDS011;1561;42.666;23.392;2022-12-18T01:15:48;9.10;;;6.60;;
3101;SDS011;1561;42.666;23.392;2022-12-18T01:18:15;10.10;;;7.43;;
3101;SDS011;1561;42.666;23.392;2022-12-18T01:20:58;10.30;;;7.13;;
3101;SDS011;1561;42.666;23.392;2022-12-18T01:23:34;9.37;;;7.17;;
3101;SDS011;1561;42.666;23.392;2022-12-18T01:26:06;10.40;;;7.23;;
3101;SDS011;1561;42.666;23.392;2022-12-18T01:28:34;9.83;;;7.40;;
3101;SDS011;1561;42.666;23.392;2022-12-18T01:31:12;10.90;;;8.07;;
3101;SDS011;1561;42.666;23.392;2022-12-18T01:33:48;9.57;;;7.17;;
3101;SDS011;1561;42.666;23.392;2022-12-18T01:36:24;10.10;;;8.00;;
3101;SDS011;1561;42.666;23.392;2022-12-18T01:38:53;9.33;;;7.47;;
3101;SDS011;1561;42.666;23.392;2022-12-18T01:41:22;12.20;;;7.87;;
3101;SDS011;1561;42.666;23.392;2022-12-18T01:43:52;11.77;;;7.87;;
3101;SDS011;1561;42.666;23.392;2022-12-18T01:46:22;9.23;;;6.70;;
3101;SDS011;1561;42.666;23.392;2022-12-18T01:48:52;10.43;;;8.30;;
3101;SDS011;1561;42.666;23.392;2022-12-18T01:51:26;11.80;;;9.20;;
3101;SDS011;1561;42.666;23.392;2022-12-18T01:53:56;9.60;;;7.20;;
3101;SDS011;1561;42.666;23.392;2022-12-18T01:56:25;12.70;;;8.50;;
3101;SDS011;1561;42.666;23.392;2022-12-18T01:58:54;9.90;;;8.10;;
3101;SDS011;1561;42.666;23.392;2022-12-18T02:01:26;8.97;;;8.03;;
3101;SDS011;1561;42.666;23.392;2022-12-18T02:03:55;11.63;;;8.00;;
3101;SDS011;1561;42.666;23.392;2022-12-18T02:06:48;12.30;;;7.57;;
3101;SDS011;1561;42.666;23.392;2022-12-18T02:09:23;9.63;;;7.10;;
3101;SDS011;1561;42.666;23.392;2022-12-18T02:11:58;11.90;;;8.07;;
3101;SDS011;1561;42.666;23.392;2022-12-18T02:14:32;11.03;;;7.67;;
3101;SDS011;1561;42.666;23.392;2022-12-18T02:17:04;12.10;;;8.33;;
3101;SDS011;1561;42.666;23.392;2022-12-18T02:19:39;11.67;;;6.97;;
3101;SDS011;1561;42.666;23.392;2022-12-18T02:22:20;10.53;;;7.63;;
3101;SDS011;1561;42.666;23.392;2022-12-18T02:24:59;6.63;;;5.40;;
3101;SDS011;1561;42.666;23.392;2022-12-18T02:27:34;9.80;;;7.40;;
3101;SDS011;1561;42.666;23.392;2022-12-18T02:30:04;7.20;;;6.07;;
3101;SDS011;1561;42.666;23.392;2022-12-18T02:32:34;9.40;;;6.67;;
3101;SDS011;1561;42.666;23.392;2022-12-18T02:35:06;11.27;;;6.60;;
3101;SDS011;1561;42.666;23.392;2022-12-18T02:37:40;6.50;;;5.40;;
3101;SDS011;1561;42.666;23.392;2022-12-18T02:40:09;9.37;;;6.50;;
3101;SDS011;1561;42.666;23.392;2022-12-18T02:42:41;8.77;;;6.90;;
3101;SDS011;1561;42.666;23.392;2022-12-18T02:45:09;11.00;;;8.20;;
3101;SDS011;1561;42.666;23.392;2022-12-18T02:47:38;8.67;;;6.33;;
3101;SDS011;1561;42.666;23.392;2022-12-18T02:50:10;11.50;;;7.60;;
3101;SDS011;1561;42.666;23.392;2022-12-18T02:52:45;7.70;;;5.13;;
3101;SDS011;1561;42.666;23.392;2022-12-18T02:55:32;11.77;;;8.50;;
3101;SDS011;1561;42.666;23.392;2022-12-18T02:58:10;11.90;;;6.83;;
3101;SDS011;1561;42.666;23.392;2022-12-18T03:00:50;11.03;;;8.03;;
3101;SDS011;1561;42.666;23.392;2022-12-18T03:03:21;11.37;;;8.07;;
3101;SDS011;1561;42.666;23.392;2022-12-18T03:05:57;8.83;;;7.43;;
3101;SDS011;1561;42.666;23.392;2022-12-18T03:08:31;11.07;;;8.47;;
3101;SDS011;1561;42.666;23.392;2022-12-18T03:11:04;13.67;;;8.27;;
3101;SDS011;1561;42.666;23.392;2022-12-18T03:13:36;9.60;;;6.63;;
3101;SDS011;1561;42.666;23.392;2022-12-18T03:16:14;10.80;;;8.70;;
3101;SDS011;1561;42.666;23.392;2022-12-18T03:18:48;13.00;;;8.53;;
3101;SDS011;1561;42.666;23.392;2022-12-18T03:21:22;12.80;;;8.40;;
3101;SDS011;1561;42.666;23.392;2022-12-18T03:23:55;9.60;;;7.83;;
3101;SDS011;1561;42.666;23.392;2022-12-18T03:26:24;12.40;;;8.60;;
3101;SDS011;1561;42.666;23.392;2022-12-18T03:28:57;12.13;;;7.50;;
3101;SDS011;1561;42.666;23.392;2022-12-18T03:31:28;10.43;;;7.53;;
3101;SDS011;1561;42.666;23.392;2022-12-18T03:33:57;11.20;;;7.60;;
3101;SDS011;1561;42.666;23.392;2022-12-18T03:36:26;12.43;;;8.33;;
3101;SDS011;1561;42.666;23.392;2022-12-18T03:45:15;9.47;;;7.30;;
3101;SDS011;1561;42.666;23.392;2022-12-18T03:54:02;11.20;;;8.00;;
3101;SDS011;1561;42.666;23.392;2022-12-18T03:56:32;12.10;;;8.13;;
3101;SDS011;1561;42.666;23.392;2022-12-18T03:59:04;12.27;;;7.40;;
3101;SDS011;1561;42.666;23.392;2022-12-18T04:01:37;11.03;;;7.70;;
3101;SDS011;1561;42.666;23.392;2022-12-18T04:04:10;11.30;;;7.63;;
3101;SDS011;1561;42.666;23.392;2022-12-18T04:06:38;9.40;;;7.53;;
3101;SDS011;1561;42.666;23.392;2022-12-18T04:09:09;11.33;;;7.90;;
3101;SDS011;1561;42.666;23.392;2022-12-18T04:11:37;12.60;;;8.10;;
3101;SDS011;1561;42.666;23.392;2022-12-18T04:14:06;11.10;;;7.90;;
3101;SDS011;1561;42.666;23.392;2022-12-18T04:16:33;9.97;;;7.17;;
3101;SDS011;1561;42.666;23.392;2022-12-18T04:19:01;9.97;;;6.70;;
3101;SDS011;1561;42.666;23.392;2022-12-18T04:21:30;10.80;;;7.20;;
3101;SDS011;1561;42.666;23.392;2022-12-18T04:23:57;6.90;;;5.33;;
3101;SDS011;1561;42.666;23.392;2022-12-18T04:26:24;11.50;;;8.00;;
3101;SDS011;1561;42.666;23.392;2022-12-18T04:28:53;9.83;;;7.37;;
3101;SDS011;1561;42.666;23.392;2022-12-18T04:31:21;10.37;;;7.30;;
3101;SDS011;1561;42.666;23.392;2022-12-18T04:33:57;9.07;;;6.73;;
3101;SDS011;1561;42.666;23.392;2022-12-18T04:36:25;11.50;;;8.00;;
3101;SDS011;1561;42.666;23.392;2022-12-18T04:38:53;13.03;;;8.37;;
3101;SDS011;1561;42.666;23.392;2022-12-18T04:41:20;13.30;;;8.90;;
3101;SDS011;1561;42.666;23.392;2022-12-18T04:43:47;12.07;;;8.40;;
3101;SDS011;1561;42.666;23.392;2022-12-18T04:46:15;11.20;;;8.53;;
3101;SDS011;1561;42.666;23.392;2022-12-18T04:48:44;12.90;;;8.40;;
3101;SDS011;1561;42.666;23.392;2022-12-18T04:51:20;13.37;;;8.10;;
3101;SDS011;1561;42.666;23.392;2022-12-18T04:53:53;14.83;;;8.30;;
3101;SDS011;1561;42.666;23.392;2022-12-18T04:56:23;13.07;;;8.30;;
3101;SDS011;1561;42.666;23.392;2022-12-18T04:58:49;15.80;;;9.13;;
3101;SDS011;1561;42.666;23.392;2022-12-18T05:01:19;12.47;;;9.13;;
3101;SDS011;1561;42.666;23.392;2022-12-18T05:03:47;12.10;;;8.40;;
3101;SDS011;1561;42.666;23.392;2022-12-18T05:06:14;18.03;;;9.07;;
3101;SDS011;1561;42.666;23.392;2022-12-18T05:08:43;10.60;;;6.87;;
3101;SDS011;1561;42.666;23.392;2022-12-18T05:11:13;16.23;;;9.00;;
3101;SDS011;1561;42.666;23.392;2022-12-18T05:19:19;13.37;;;8.60;;
3101;SDS011;1561;42.666;23.392;2022-12-18T05:21:47;18.80;;;9.03;;
3101;SDS011;1561;42.666;23.392;2022-12-18T05:24:16;14.37;;;9.10;;
3101;SDS011;1561;42.666;23.392;2022-12-18T05:26:45;18.63;;;10.43;;
3101;SDS011;1561;42.666;23.392;2022-12-18T05:29:13;15.30;;;10.27;;
3101;SDS011;1561;42.666;23.392;2022-12-18T05:31:41;17.40;;;10.33;;
3101;SDS011;1561;42.666;23.392;2022-12-18T05:34:10;17.57;;;10.50;;
3101;SDS011;1561;42.666;23.392;2022-12-18T05:36:37;17.90;;;10.83;;
3101;SDS011;1561;42.666;23.392;2022-12-18T05:39:12;14.53;;;10.17;;
3101;SDS011;1561;42.666;23.392;2022-12-18T05:41:40;17.20;;;9.80;;
3101;SDS011;1561;42.666;23.392;2022-12-18T05:44:10;18.60;;;11.17;;
3101;SDS011;1561;42.666;23.392;2022-12-18T05:46:37;22.90;;;11.50;;
3101;SDS011;1561;42.666;23.392;2022-12-18T05:49:10;18.13;;;10.60;;
3101;SDS011;1561;42.666;23.392;2022-12-18T05:51:37;16.10;;;9.30;;
3101;SDS011;1561;42.666;23.392;2022-12-18T05:54:06;15.67;;;8.27;;
3101;SDS011;1561;42.666;23.392;2022-12-18T05:56:33;15.90;;;8.67;;
3101;SDS011;1561;42.666;23.392;2022-12-18T05:59:03;20.43;;;10.97;;
3101;SDS011;1561;42.666;23.392;2022-12-18T06:01:32;20.97;;;12.00;;
3101;SDS011;1561;42.666;23.392;2022-12-18T06:04:00;17.80;;;10.33;;
3101;SDS011;1561;42.666;23.392;2022-12-18T06:06:27;16.20;;;10.07;;
3101;SDS011;1561;42.666;23.392;2022-12-18T06:08:56;20.57;;;11.50;;
3101;SDS011;1561;42.666;23.392;2022-12-18T06:11:35;20.10;;;10.50;;
3101;SDS011;1561;42.666;23.392;2022-12-18T06:14:03;19.83;;;11.10;;
3101;SDS011;1561;42.666;23.392;2022-12-18T06:16:39;17.77;;;11.33;;
3101;SDS011;1561;42.666;23.392;2022-12-18T06:19:12;19.20;;;11.17;;
3101;SDS011;1561;42.666;23.392;2022-12-18T06:21:40;20.47;;;12.73;;
3101;SDS011;1561;42.666;23.392;2022-12-18T06:24:09;24.20;;;11.57;;
3101;SDS011;1561;42.666;23.392;2022-12-18T06:26:38;17.77;;;10.93;;
3101;SDS011;1561;42.666;23.392;2022-12-18T06:29:06;16.83;;;11.33;;
3101;SDS011;1561;42.666;23.392;2022-12-18T06:31:39;18.60;;;11.77;;
3101;SDS011;1561;42.666;23.392;2022-12-18T06:34:06;19.53;;;11.37;;
3101;SDS011;1561;42.666;23.392;2022-12-18T06:36:35;19.60;;;11.43;;
3101;SDS011;1561;42.666;23.392;2022-12-18T06:55:26;14.40;;;10.40;;
3101;SDS011;1561;42.666;23.392;2022-12-18T06:57:56;14.53;;;8.50;;
3101;SDS011;1561;42.666;23.392;2022-12-18T07:00:26;18.10;;;10.70;;
3101;SDS011;1561;42.666;23.392;2022-12-18T07:03:01;22.07;;;11.50;;
3101;SDS011;1561;42.666;23.392;2022-12-18T07:05:44;15.80;;;10.40;;
3101;SDS011;1561;42.666;23.392;2022-12-18T07:08:33;21.27;;;12.20;;
3101;SDS011;1561;42.666;23.392;2022-12-18T07:11:03;16.03;;;11.50;;
3101;SDS011;1561;42.666;23.392;2022-12-18T07:13:39;14.37;;;10.20;;
3101;SDS011;1561;42.666;23.392;2022-12-18T07:16:10;17.80;;;10.77;;
3101;SDS011;1561;42.666;23.392;2022-12-18T07:18:47;20.97;;;12.80;;
3101;SDS011;1561;42.666;23.392;2022-12-18T07:21:19;16.00;;;10.97;;
3101;SDS011;1561;42.666;23.392;2022-12-18T07:23:52;23.73;;;11.23;;
3101;SDS011;1561;42.666;23.392;2022-12-18T07:26:19;16.33;;;9.63;;
3101;SDS011;1561;42.666;23.392;2022-12-18T07:28:48;18.40;;;11.70;;
3101;SDS011;1561;42.666;23.392;2022-12-18T07:31:18;18.57;;;11.67;;
3101;SDS011;1561;42.666;23.392;2022-12-18T07:33:48;19.90;;;12.23;;
3101;SDS011;1561;42.666;23.392;2022-12-18T07:36:25;21.17;;;11.60;;
3101;SDS011;1561;42.666;23.392;2022-12-18T07:38:53;19.07;;;12.43;;
3101;SDS011;1561;42.666;23.392;2022-12-18T07:41:21;20.33;;;13.37;;
3101;SDS011;1561;42.666;23.392;2022-12-18T07:43:49;18.13;;;11.30;;
3101;SDS011;1561;42.666;23.392;2022-12-18T07:46:21;22.90;;;12.60;;
3101;SDS011;1561;42.666;23.392;2022-12-18T07:48:49;23.80;;;13.30;;
3101;SDS011;1561;42.666;23.392;2022-12-18T07:51:18;25.93;;;14.17;;
3101;SDS011;1561;42.666;23.392;2022-12-18T07:53:48;19.37;;;12.03;;
3101;SDS011;1561;42.666;23.392;2022-12-18T07:56:17;19.40;;;11.43;;
3101;SDS011;1561;42.666;23.392;2022-12-18T07:58:46;21.43;;;13.37;;
3101;SDS011;1561;42.666;23.392;2022-12-18T08:01:14;20.30;;;13.60;;
3101;SDS011;1561;42.666;23.392;2022-12-18T08:03:41;21.50;;;13.00;;
3101;SDS011;1561;42.666;23.392;2022-12-18T08:06:14;20.07;;;12.70;;
3101;SDS011;1561;42.666;23.392;2022-12-18T08:08:44;25.60;;;15.33;;
3101;SDS011;1561;42.666;23.392;2022-12-18T08:11:14;22.70;;;13.80;;
3101;SDS011;1561;42.666;23.392;2022-12-18T08:13:45;22.70;;;14.50;;
3101;SDS011;1561;42.666;23.392;2022-12-18T08:16:12;23.27;;;12.40;;
3101;SDS011;1561;42.666;23.392;2022-12-18T08:18:43;23.20;;;13.40;;
3101;SDS011;1561;42.666;23.392;2022-12-18T08:21:23;21.40;;;12.23;;
3101;SDS011;1561;42.666;23.392;2022-12-18T08:23:56;22.10;;;13.40;;
3101;SDS011;1561;42.666;23.392;2022-12-18T08:26:30;22.83;;;12.27;;
3101;SDS011;1561;42.666;23.392;2022-12-18T08:29:09;27.23;;;15.10;;
3101;SDS011;1561;42.666;23.392;2022-12-18T08:31:45;21.10;;;13.50;;
3101;SDS011;1561;42.666;23.392;2022-12-18T08:34:15;25.47;;;14.20;;
3101;SDS011;1561;42.666;23.392;2022-12-18T08:36:49;25.90;;;15.87;;
3101;SDS011;1561;42.666;23.392;2022-12-18T08:39:31;21.00;;;12.30;;
3101;SDS011;1561;42.666;23.392;2022-12-18T08:42:05;22.13;;;13.53;;
3101;SDS011;1561;42.666;23.392;2022-12-18T08:44:50;25.20;;;14.10;;
3101;SDS011;1561;42.666;23.392;2022-12-18T08:47:19;24.13;;;15.00;;
3101;SDS011;1561;42.666;23.392;2022-12-18T08:49:46;26.27;;;15.00;;
3101;SDS011;1561;42.666;23.392;2022-12-18T08:52:14;22.60;;;14.33;;
3101;SDS011;1561;42.666;23.392;2022-12-18T09:01:27;23.87;;;13.80;;
3101;SDS011;1561;42.666;23.392;2022-12-18T09:03:57;28.00;;;14.87;;
3101;SDS011;1561;42.666;23.392;2022-12-18T09:06:24;23.67;;;12.00;;
3101;SDS011;1561;42.666;23.392;2022-12-18T09:12:27;20.10;;;14.00;;
3101;SDS011;1561;42.666;23.392;2022-12-18T09:14:54;21.40;;;13.80;;
3101;SDS011;1561;42.666;23.392;2022-12-18T09:17:33;24.17;;;13.97;;
3101;SDS011;1561;42.666;23.392;2022-12-18T09:20:00;16.63;;;11.13;;
3101;SDS011;1561;42.666;23.392;2022-12-18T09:22:28;20.23;;;11.77;;
3101;SDS011;1561;42.666;23.392;2022-12-18T09:24:56;18.00;;;11.47;;
3101;SDS011;1561;42.666;23.392;2022-12-18T09:27:27;19.27;;;12.60;;
3101;SDS011;1561;42.666;23.392;2022-12-18T09:29:56;21.37;;;13.00;;
3101;SDS011;1561;42.666;23.392;2022-12-18T09:32:26;20.08;;;12.77;;
3101;SDS011;1561;42.666;23.392;2022-12-18T09:34:57;18.53;;;10.67;;
3101;SDS011;1561;42.666;23.392;2022-12-18T09:37:25;16.00;;;11.00;;
3101;SDS011;1561;42.666;23.392;2022-12-18T09:40:01;19.87;;;12.07;;
3101;SDS011;1561;42.666;23.392;2022-12-18T09:42:29;22.30;;;12.20;;
3101;SDS011;1561;42.666;23.392;2022-12-18T09:44:57;18.57;;;11.77;;
3101;SDS011;1561;42.666;23.392;2022-12-18T09:47:33;20.80;;;12.43;;
3101;SDS011;1561;42.666;23.392;2022-12-18T09:50:06;16.17;;;9.77;;
3101;SDS011;1561;42.666;23.392;2022-12-18T09:52:50;20.60;;;12.37;;
3101;SDS011;1561;42.666;23.392;2022-12-18T09:55:23;24.10;;;11.90;;
3101;SDS011;1561;42.666;23.392;2022-12-18T09:57:55;19.10;;;11.57;;
3101;SDS011;1561;42.666;23.392;2022-12-18T10:00:26;21.97;;;12.97;;
3101;SDS011;1561;42.666;23.392;2022-12-18T10:02:56;19.10;;;11.80;;
3101;SDS011;1561;42.666;23.392;2022-12-18T10:05:36;23.60;;;12.33;;
3101;SDS011;1561;42.666;23.392;2022-12-18T10:20:13;22.93;;;12.53;;
3101;SDS011;1561;42.666;23.392;2022-12-18T10:22:50;20.40;;;12.00;;
3101;SDS011;1561;42.666;23.392;2022-12-18T10:25:41;17.40;;;12.00;;
3101;SDS011;1561;42.666;23.392;2022-12-18T10:31:38;18.60;;;10.93;;
3101;SDS011;1561;42.666;23.392;2022-12-18T10:37:28;19.07;;;11.83;;
3101;SDS011;1561;42.666;23.392;2022-12-18T10:40:10;20.70;;;11.73;;
3101;SDS011;1561;42.666;23.392;2022-12-18T10:43:14;19.67;;;11.77;;
3101;SDS011;1561;42.666;23.392;2022-12-18T10:45:42;21.13;;;12.17;;
3101;SDS011;1561;42.666;23.392;2022-12-18T10:48:48;16.80;;;10.37;;
3101;SDS011;1561;42.666;23.392;2022-12-18T10:54:16;20.83;;;12.70;;
3101;SDS011;1561;42.666;23.392;2022-12-18T10:56:50;19.60;;;12.27;;
3101;SDS011;1561;42.666;23.392;2022-12-18T10:59:18;23.17;;;13.37;;
3101;SDS011;1561;42.666;23.392;2022-12-18T11:01:53;20.50;;;12.07;;
3101;SDS011;1561;42.666;23.392;2022-12-18T11:04:28;22.50;;;12.60;;
3101;SDS011;1561;42.666;23.392;2022-12-18T11:06:59;25.40;;;14.53;;
3101;SDS011;1561;42.666;23.392;2022-12-18T11:09:30;22.30;;;12.10;;
3101;SDS011;1561;42.666;23.392;2022-12-18T11:12:05;25.50;;;15.33;;
3101;SDS011;1561;42.666;23.392;2022-12-18T11:14:47;27.43;;;14.20;;
3101;SDS011;1561;42.666;23.392;2022-12-18T11:17:19;20.77;;;11.70;;
3101;SDS011;1561;42.666;23.392;2022-12-18T11:19:52;23.00;;;13.80;;
3101;SDS011;1561;42.666;23.392;2022-12-18T11:22:36;17.20;;;10.40;;
3101;SDS011;1561;42.666;23.392;2022-12-18T11:25:19;24.80;;;12.60;;
3101;SDS011;1561;42.666;23.392;2022-12-18T11:27:56;21.03;;;13.67;;
3101;SDS011;1561;42.666;23.392;2022-12-18T11:31:09;19.70;;;12.80;;
3101;SDS011;1561;42.666;23.392;2022-12-18T11:34:26;19.50;;;13.17;;
3101;SDS011;1561;42.666;23.392;2022-12-18T11:37:01;24.90;;;13.50;;
3101;SDS011;1561;42.666;23.392;2022-12-18T11:39:34;20.87;;;13.00;;
3101;SDS011;1561;42.666;23.392;2022-12-18T11:51:32;23.47;;;12.90;;
3101;SDS011;1561;42.666;23.392;2022-12-18T11:54:08;25.40;;;14.40;;
3101;SDS011;1561;42.666;23.392;2022-12-18T11:56:49;25.70;;;14.30;;
3101;SDS011;1561;42.666;23.392;2022-12-18T11:59:35;20.83;;;12.40;;
3101;SDS011;1561;42.666;23.392;2022-12-18T12:05:40;19.83;;;12.63;;
3101;SDS011;1561;42.666;23.392;2022-12-18T12:08:21;20.77;;;13.60;;
3101;SDS011;1561;42.666;23.392;2022-12-18T12:10:58;24.27;;;14.23;;
3101;SDS011;1561;42.666;23.392;2022-12-18T12:13:39;19.17;;;12.40;;
3101;SDS011;1561;42.666;23.392;2022-12-18T12:16:17;19.93;;;12.23;;
3101;SDS011;1561;42.666;23.392;2022-12-18T12:19:04;22.83;;;12.80;;
3101;SDS011;1561;42.666;23.392;2022-12-18T12:21:43;18.90;;;12.17;;
3101;SDS011;1561;42.666;23.392;2022-12-18T12:24:25;20.90;;;12.13;;
3101;SDS011;1561;42.666;23.392;2022-12-18T12:27:04;20.50;;;12.40;;
3101;SDS011;1561;42.666;23.392;2022-12-18T12:29:44;19.93;;;12.27;;
3101;SDS011;1561;42.666;23.392;2022-12-18T12:32:21;22.40;;;14.20;;
3101;SDS011;1561;42.666;23.392;2022-12-18T12:34:59;22.40;;;13.40;;
3101;SDS011;1561;42.666;23.392;2022-12-18T12:37:46;23.37;;;13.60;;
3101;SDS011;1561;42.666;23.392;2022-12-18T12:40:24;23.80;;;12.80;;
3101;SDS011;1561;42.666;23.392;2022-12-18T12:42:55;22.83;;;11.33;;
3101;SDS011;1561;42.666;23.392;2022-12-18T12:45:41;23.33;;;13.37;;
3101;SDS011;1561;42.666;23.392;2022-12-18T12:48:16;22.13;;;11.97;;
3101;SDS011;1561;42.666;23.392;2022-12-18T12:50:52;21.90;;;13.33;;
3101;SDS011;1561;42.666;23.392;2022-12-18T12:53:25;22.07;;;12.67;;
3101;SDS011;1561;42.666;23.392;2022-12-18T12:56:05;23.17;;;14.23;;
3101;SDS011;1561;42.666;23.392;2022-12-18T12:58:36;19.33;;;12.50;;
3101;SDS011;1561;42.666;23.392;2022-12-18T13:01:17;22.77;;;13.70;;
3101;SDS011;1561;42.666;23.392;2022-12-18T13:03:54;22.47;;;13.30;;
3101;SDS011;1561;42.666;23.392;2022-12-18T13:06:30;21.67;;;13.90;;
3101;SDS011;1561;42.666;23.392;2022-12-18T13:09:05;22.33;;;14.67;;
3101;SDS011;1561;42.666;23.392;2022-12-18T13:11:43;23.97;;;14.30;;
3101;SDS011;1561;42.666;23.392;2022-12-18T13:14:30;20.20;;;12.07;;
3101;SDS011;1561;42.666;23.392;2022-12-18T13:20:09;21.83;;;14.30;;
3101;SDS011;1561;42.666;23.392;2022-12-18T13:22:42;23.00;;;14.00;;
3101;SDS011;1561;42.666;23.392;2022-12-18T13:25:26;24.40;;;12.87;;
3101;SDS011;1561;42.666;23.392;2022-12-18T13:28:03;19.13;;;13.13;;
3101;SDS011;1561;42.666;23.392;2022-12-18T13:30:46;21.30;;;13.10;;
3101;SDS011;1561;42.666;23.392;2022-12-18T13:33:37;20.10;;;13.47;;
3101;SDS011;1561;42.666;23.392;2022-12-18T13:36:15;24.60;;;12.07;;
3101;SDS011;1561;42.666;23.392;2022-12-18T13:39:10;19.60;;;11.30;;
3101;SDS011;1561;42.666;23.392;2022-12-18T13:41:52;18.70;;;12.17;;
3101;SDS011;1561;42.666;23.392;2022-12-18T13:45:04;21.40;;;13.10;;
3101;SDS011;1561;42.666;23.392;2022-12-18T13:48:19;24.63;;;13.67;;
3101;SDS011;1561;42.666;23.392;2022-12-18T13:50:52;27.47;;;14.40;;
3101;SDS011;1561;42.666;23.392;2022-12-18T13:53:23;27.70;;;15.53;;
3101;SDS011;1561;42.666;23.392;2022-12-18T13:55:54;23.97;;;15.63;;
3101;SDS011;1561;42.666;23.392;2022-12-18T13:58:21;26.40;;;15.80;;
3101;SDS011;1561;42.666;23.392;2022-12-18T14:00:51;24.63;;;15.07;;
3101;SDS011;1561;42.666;23.392;2022-12-18T14:03:20;22.93;;;14.50;;
3101;SDS011;1561;42.666;23.392;2022-12-18T14:05:52;21.27;;;14.17;;
3101;SDS011;1561;42.666;23.392;2022-12-18T14:08:27;20.73;;;14.17;;
3101;SDS011;1561;42.666;23.392;2022-12-18T14:11:02;24.37;;;14.20;;
3101;SDS011;1561;42.666;23.392;2022-12-18T14:13:32;23.13;;;14.80;;
3101;SDS011;1561;42.666;23.392;2022-12-18T14:16:04;22.13;;;14.10;;
3101;SDS011;1561;42.666;23.392;2022-12-18T14:18:38;21.33;;;13.10;;
3101;SDS011;1561;42.666;23.392;2022-12-18T14:21:19;20.17;;;13.13;;
3101;SDS011;1561;42.666;23.392;2022-12-18T14:23:48;27.43;;;14.87;;
3101;SDS011;1561;42.666;23.392;2022-12-18T14:26:20;20.60;;;13.00;;
3101;SDS011;1561;42.666;23.392;2022-12-18T14:28:53;19.60;;;12.40;;
3101;SDS011;1561;42.666;23.392;2022-12-18T14:31:25;17.73;;;11.40;;
3101;SDS011;1561;42.666;23.392;2022-12-18T14:33:53;21.10;;;12.87;;
3101;SDS011;1561;42.666;23.392;2022-12-18T14:36:23;19.70;;;12.77;;
3101;SDS011;1561;42.666;23.392;2022-12-18T14:38:53;23.80;;;12.90;;
3101;SDS011;1561;42.666;23.392;2022-12-18T14:41:22;23.80;;;13.00;;
3101;SDS011;1561;42.666;23.392;2022-12-18T14:43:51;15.23;;;10.10;;
3101;SDS011;1561;42.666;23.392;2022-12-18T14:46:32;18.77;;;11.47;;
3101;SDS011;1561;42.666;23.392;2022-12-18T14:49:02;22.70;;;13.17;;
3101;SDS011;1561;42.666;23.392;2022-12-18T14:51:47;23.17;;;12.93;;
3101;SDS011;1561;42.666;23.392;2022-12-18T14:54:18;21.50;;;12.50;;
3101;SDS011;1561;42.666;23.392;2022-12-18T14:56:47;17.57;;;11.37;;
3101;SDS011;1561;42.666;23.392;2022-12-18T14:59:15;20.73;;;12.13;;
3101;SDS011;1561;42.666;23.392;2022-12-18T15:01:53;22.17;;;12.37;;
3101;SDS011;1561;42.666;23.392;2022-12-18T15:04:33;16.63;;;9.90;;
3101;SDS011;1561;42.666;23.392;2022-12-18T15:07:13;19.57;;;11.20;;
3101;SDS011;1561;42.666;23.392;2022-12-18T15:10:00;18.20;;;12.17;;
3101;SDS011;1561;42.666;23.392;2022-12-18T15:12:37;16.83;;;10.13;;
3101;SDS011;1561;42.666;23.392;2022-12-18T15:18:13;16.60;;;10.80;;
3101;SDS011;1561;42.666;23.392;2022-12-18T15:20:46;20.13;;;11.80;;
3101;SDS011;1561;42.666;23.392;2022-12-18T15:23:18;18.90;;;10.30;;
3101;SDS011;1561;42.666;23.392;2022-12-18T15:25:48;19.57;;;10.73;;
3101;SDS011;1561;42.666;23.392;2022-12-18T15:28:22;15.77;;;9.77;;
3101;SDS011;1561;42.666;23.392;2022-12-18T15:31:01;16.73;;;9.30;;
3101;SDS011;1561;42.666;23.392;2022-12-18T15:42:58;17.37;;;10.13;;
3101;SDS011;1561;42.666;23.392;2022-12-18T15:48:57;16.37;;;9.90;;
3101;SDS011;1561;42.666;23.392;2022-12-18T15:51:25;17.20;;;9.70;;
3101;SDS011;1561;42.666;23.392;2022-12-18T15:53:58;15.07;;;9.70;;
3101;SDS011;1561;42.666;23.392;2022-12-18T15:56:31;16.70;;;10.70;;
3101;SDS011;1561;42.666;23.392;2022-12-18T15:59:16;19.70;;;10.23;;
3101;SDS011;1561;42.666;23.392;2022-12-18T16:01:50;17.47;;;10.50;;
3101;SDS011;1561;42.666;23.392;2022-12-18T16:04:19;18.70;;;10.73;;
3101;SDS011;1561;42.666;23.392;2022-12-18T16:07:00;17.40;;;10.70;;
3101;SDS011;1561;42.666;23.392;2022-12-18T16:12:48;17.00;;;10.57;;
3101;SDS011;1561;42.666;23.392;2022-12-18T16:17:54;22.40;;;11.70;;
3101;SDS011;1561;42.666;23.392;2022-12-18T16:20:23;17.30;;;11.57;;
3101;SDS011;1561;42.666;23.392;2022-12-18T16:22:52;18.83;;;11.50;;
3101;SDS011;1561;42.666;23.392;2022-12-18T16:30:34;18.77;;;12.50;;
3101;SDS011;1561;42.666;23.392;2022-12-18T16:33:04;18.80;;;11.33;;
3101;SDS011;1561;42.666;23.392;2022-12-18T16:35:40;18.83;;;10.13;;
3101;SDS011;1561;42.666;23.392;2022-12-18T16:38:07;19.73;;;12.80;;
3101;SDS011;1561;42.666;23.392;2022-12-18T16:40:41;20.77;;;12.20;;
3101;SDS011;1561;42.666;23.392;2022-12-18T16:43:29;21.47;;;11.63;;
3101;SDS011;1561;42.666;23.392;2022-12-18T16:46:09;20.90;;;12.37;;
3101;SDS011;1561;42.666;23.392;2022-12-18T16:48:37;19.77;;;12.13;;
3101;SDS011;1561;42.666;23.392;2022-12-18T16:51:04;19.33;;;12.20;;
3101;SDS011;1561;42.666;23.392;2022-12-18T16:53:31;20.33;;;13.13;;
3101;SDS011;1561;42.666;23.392;2022-12-18T16:55:58;21.43;;;12.57;;
3101;SDS011;1561;42.666;23.392;2022-12-18T16:58:25;22.80;;;13.10;;
3101;SDS011;1561;42.666;23.392;2022-12-18T17:00:55;24.00;;;12.70;;
3101;SDS011;1561;42.666;23.392;2022-12-18T17:03:22;20.37;;;13.33;;
3101;SDS011;1561;42.666;23.392;2022-12-18T17:05:48;22.83;;;13.70;;
3101;SDS011;1561;42.666;23.392;2022-12-18T17:08:17;21.80;;;13.07;;
3101;SDS011;1561;42.666;23.392;2022-12-18T17:10:44;22.17;;;12.70;;
3101;SDS011;1561;42.666;23.392;2022-12-18T17:13:12;23.07;;;13.73;;
3101;SDS011;1561;42.666;23.392;2022-12-18T17:15:42;21.73;;;13.57;;
3101;SDS011;1561;42.666;23.392;2022-12-18T17:18:10;24.03;;;14.20;;
3101;SDS011;1561;42.666;23.392;2022-12-18T17:20:37;26.97;;;13.20;;